createdAt,value
2022-08-03T00:00:50.032Z,8.03
2022-08-03T00:03:38.221Z,7.37
2022-08-03T00:06:26.478Z,6.90
2022-08-03T00:09:16.009Z,7.57
2022-08-03T00:12:04.288Z,7.67
2022-08-03T00:14:52.545Z,7.70
2022-08-03T00:17:53.080Z,7.73
2022-08-03T00:20:42.945Z,8.30
2022-08-03T00:23:51.921Z,8.03
2022-08-03T00:26:40.921Z,7.80
2022-08-03T00:29:29.197Z,8.13
2022-08-03T00:32:17.540Z,8.00
2022-08-03T00:35:10.560Z,7.40
2022-08-03T00:38:01.778Z,8.10
2022-08-03T00:40:50.001Z,8.20
2022-08-03T00:43:39.681Z,7.57
2022-08-03T00:46:27.864Z,7.97
2022-08-03T00:49:16.140Z,8.60
2022-08-03T00:52:09.643Z,8.03
2022-08-03T00:54:58.201Z,8.40
2022-08-03T00:57:47.301Z,8.23
2022-08-03T01:00:38.870Z,7.73
2022-08-03T01:03:27.076Z,7.90
2022-08-03T01:06:19.451Z,7.50
2022-08-03T01:09:14.914Z,7.80
2022-08-03T01:12:11.599Z,7.80
2022-08-03T01:15:08.389Z,8.30
2022-08-03T01:18:05.636Z,7.33
2022-08-03T01:20:57.578Z,7.47
2022-08-03T01:24:00.041Z,7.30
2022-08-03T01:27:06.224Z,8.33
2022-08-03T01:30:05.950Z,7.80
2022-08-03T01:33:01.784Z,8.50
2022-08-03T01:36:03.084Z,8.47
2022-08-03T01:38:55.218Z,8.10
2022-08-03T01:41:48.888Z,8.60
2022-08-03T01:44:41.372Z,8.60
2022-08-03T01:47:32.676Z,8.17
2022-08-03T01:50:24.791Z,8.23
2022-08-03T01:53:15.488Z,7.90
2022-08-03T01:56:05.208Z,7.70
2022-08-03T01:58:55.156Z,7.73
2022-08-03T02:02:28.487Z,8.20
2022-08-03T02:04:57.555Z,8.20
2022-08-03T02:07:48.012Z,7.83
2022-08-03T02:10:37.327Z,8.90
2022-08-03T02:13:27.214Z,8.30
2022-08-03T02:16:15.842Z,8.17
2022-08-03T02:19:07.343Z,8.47
2022-08-03T02:22:01.350Z,8.30
2022-08-03T02:24:51.273Z,8.40
2022-08-03T02:27:44.067Z,7.97
2022-08-03T02:30:37.831Z,8.40
2022-08-03T02:33:29.448Z,8.97
2022-08-03T02:36:21.313Z,8.40
2022-08-03T02:39:14.793Z,8.40
2022-08-03T02:42:03.351Z,8.60
2022-08-03T02:44:54.261Z,8.53
2022-08-03T02:47:53.892Z,9.20
2022-08-03T02:50:45.563Z,8.40
2022-08-03T02:53:35.584Z,8.47
2022-08-03T02:56:26.575Z,8.67
2022-08-03T02:59:15.814Z,9.10
2022-08-03T03:02:04.364Z,9.23
2022-08-03T03:05:51.852Z,8.47
2022-08-03T03:08:02.987Z,8.40
2022-08-03T03:10:55.906Z,8.33
2022-08-03T03:13:47.416Z,8.47
2022-08-03T03:16:36.964Z,8.87
2022-08-03T03:19:26.396Z,8.80
2022-08-03T03:22:15.797Z,9.37
2022-08-03T03:25:04.499Z,8.77
2022-08-03T03:27:53.202Z,9.13
2022-08-03T03:30:43.451Z,8.67
2022-08-03T03:33:31.820Z,8.83
2022-08-03T03:36:20.288Z,9.10
2022-08-03T03:39:15.968Z,9.30
2022-08-03T03:42:05.565Z,9.03
2022-08-03T03:44:54.033Z,8.93
2022-08-03T03:47:43.622Z,8.60
2022-08-03T03:50:33.125Z,8.93
2022-08-03T03:53:21.646Z,9.60
2022-08-03T03:56:09.830Z,8.37
2022-08-03T03:58:58.139Z,9.57
2022-08-03T04:01:46.693Z,9.70
2022-08-03T04:04:54.666Z,9.10
2022-08-03T04:08:14.211Z,9.60
2022-08-03T04:11:10.124Z,8.60
2022-08-03T04:14:02.830Z,9.60
2022-08-03T04:16:54.505Z,9.23
2022-08-03T04:19:51.232Z,10.47
2022-08-03T04:22:42.026Z,10.20
2022-08-03T04:25:36.311Z,10.03
2022-08-03T04:28:30.386Z,9.90
2022-08-03T04:31:23.004Z,10.87
2022-08-03T04:34:11.430Z,9.97
2022-08-03T04:37:07.096Z,9.83
2022-08-03T04:39:59.325Z,9.23
2022-08-03T04:42:49.856Z,9.73
2022-08-03T04:45:39.695Z,9.67
2022-08-03T04:48:28.371Z,9.77
2022-08-03T04:51:17.250Z,9.70
2022-08-03T04:54:07.323Z,11.00
2022-08-03T04:56:55.501Z,9.80
2022-08-03T04:59:43.799Z,9.43
2022-08-03T05:02:32.470Z,9.10
2022-08-03T05:05:21.061Z,10.00
2022-08-03T05:08:11.391Z,9.70
2022-08-03T05:11:00.999Z,9.50
2022-08-03T05:13:49.461Z,10.00
2022-08-03T05:16:37.703Z,9.43
2022-08-03T05:19:26.739Z,9.80
2022-08-03T05:22:15.229Z,10.07
2022-08-03T05:25:03.970Z,10.37
2022-08-03T05:27:53.561Z,10.00
2022-08-03T05:30:41.775Z,9.67
2022-08-03T05:33:30.026Z,11.33
2022-08-03T05:36:18.457Z,10.30
2022-08-03T05:39:06.929Z,10.80
2022-08-03T05:41:55.214Z,10.10
2022-08-03T05:44:44.799Z,10.17
2022-08-03T05:47:33.094Z,11.63
2022-08-03T05:50:21.985Z,10.63
2022-08-03T05:53:10.226Z,10.90
2022-08-03T05:56:03.498Z,10.93
2022-08-03T05:59:22.382Z,10.17
2022-08-03T06:02:13.399Z,9.63
2022-08-03T06:05:01.850Z,10.10
2022-08-03T06:07:50.335Z,9.90
2022-08-03T06:10:38.661Z,9.20
2022-08-03T06:13:26.947Z,9.23
2022-08-03T06:16:15.207Z,10.27
2022-08-03T06:19:05.365Z,8.53
2022-08-03T06:21:53.701Z,9.20
2022-08-03T06:24:42.658Z,9.70
2022-08-03T06:27:41.874Z,9.30
2022-08-03T06:30:30.090Z,8.20
2022-08-03T06:33:18.397Z,7.60
2022-08-03T06:36:08.463Z,7.13
2022-08-03T06:39:00.899Z,7.93
2022-08-03T06:41:49.194Z,6.80
2022-08-03T06:44:38.669Z,6.77
2022-08-03T06:47:26.905Z,7.20
2022-08-03T06:50:17.502Z,6.57
2022-08-03T06:53:09.049Z,6.10
2022-08-03T06:56:07.123Z,6.20
2022-08-03T06:58:55.529Z,6.60
2022-08-03T07:01:43.768Z,6.30
2022-08-03T07:04:32.086Z,6.57
2022-08-03T07:07:20.580Z,5.77
2022-08-03T07:10:11.572Z,6.10
2022-08-03T07:12:59.819Z,6.50
2022-08-03T07:15:55.430Z,6.67
2022-08-03T07:18:44.625Z,6.40
2022-08-03T07:21:32.811Z,6.60
2022-08-03T07:24:20.986Z,6.10
2022-08-03T07:27:10.746Z,6.20
2022-08-03T07:29:59.995Z,5.83
2022-08-03T07:32:50.682Z,6.60
2022-08-03T07:35:39.116Z,6.40
2022-08-03T07:38:27.481Z,5.90
2022-08-03T07:41:15.898Z,5.20
2022-08-03T07:44:05.869Z,6.20
2022-08-03T07:46:54.110Z,5.20
2022-08-03T07:49:45.131Z,5.57
2022-08-03T07:52:53.454Z,4.93
2022-08-03T07:55:42.384Z,4.53
2022-08-03T07:58:30.603Z,4.80
2022-08-03T08:01:21.790Z,4.30
2022-08-03T08:04:09.996Z,4.40
2022-08-03T08:06:58.270Z,4.00
2022-08-03T08:09:46.794Z,4.10
2022-08-03T08:12:35.060Z,4.23
2022-08-03T08:15:23.459Z,3.90
2022-08-03T08:18:13.037Z,3.67
2022-08-03T08:21:03.298Z,3.73
2022-08-03T08:23:57.041Z,3.83
2022-08-03T08:26:46.185Z,3.87
2022-08-03T08:29:34.969Z,3.57
2022-08-03T08:32:23.203Z,3.30
2022-08-03T08:35:13.394Z,4.00
2022-08-03T08:38:04.099Z,3.27
2022-08-03T08:40:56.774Z,3.47
2022-08-03T08:43:45.109Z,3.30
2022-08-03T08:46:34.542Z,2.90
2022-08-03T08:49:28.358Z,3.10
2022-08-03T08:52:25.356Z,3.10
2022-08-03T08:55:22.598Z,3.37
2022-08-03T08:58:13.003Z,3.23
2022-08-03T09:01:09.293Z,3.10
2022-08-03T09:03:57.594Z,3.10
2022-08-03T09:06:58.853Z,3.10
2022-08-03T09:10:10.026Z,3.23
2022-08-03T09:13:01.447Z,3.70
2022-08-03T09:16:09.938Z,3.10
2022-08-03T09:19:13.510Z,3.67
2022-08-03T09:22:14.013Z,2.77
2022-08-03T09:28:57.225Z,2.90
2022-08-03T09:31:32.000Z,2.87
2022-08-03T09:34:25.947Z,2.63
2022-08-03T09:37:16.253Z,2.67
2022-08-03T09:40:08.349Z,2.40
2022-08-03T09:42:58.958Z,2.47
2022-08-03T09:45:47.316Z,2.80
2022-08-03T09:48:37.206Z,2.67
2022-08-03T09:51:33.139Z,2.63
2022-08-03T09:54:34.626Z,2.70
2022-08-03T09:57:27.150Z,2.73
2022-08-03T10:00:18.048Z,2.50
2022-08-03T10:03:06.589Z,2.80
2022-08-03T10:05:59.562Z,2.60
2022-08-03T10:08:48.840Z,1.93
2022-08-03T10:11:41.205Z,2.30
2022-08-03T10:14:32.550Z,2.80
2022-08-03T10:17:21.315Z,2.47
2022-08-03T10:20:11.299Z,3.07
2022-08-03T10:23:00.658Z,2.50
2022-08-03T10:25:53.643Z,2.60
2022-08-03T10:28:48.343Z,3.03
2022-08-03T10:31:57.391Z,2.37
2022-08-03T10:34:47.667Z,2.60
2022-08-03T10:37:56.866Z,2.40
2022-08-03T10:40:51.804Z,2.77
2022-08-03T10:43:48.998Z,2.63
2022-08-03T10:46:44.732Z,2.70
2022-08-03T10:49:35.635Z,2.20
2022-08-03T10:52:33.710Z,2.60
2022-08-03T10:55:52.460Z,2.60
2022-08-03T10:58:57.483Z,3.17
2022-08-03T11:01:58.855Z,2.90
2022-08-03T11:05:36.669Z,2.73
2022-08-03T11:08:27.905Z,3.00
2022-08-03T11:11:33.931Z,2.20
2022-08-03T11:14:23.856Z,2.40
2022-08-03T11:17:15.517Z,2.80
2022-08-03T11:20:05.394Z,2.40
2022-08-03T11:22:56.671Z,2.50
2022-08-03T11:26:15.866Z,2.50
2022-08-03T11:29:37.398Z,2.47
2022-08-03T11:32:56.233Z,2.70
2022-08-03T11:36:00.986Z,2.20
2022-08-03T11:39:16.891Z,2.40
2022-08-03T11:42:38.782Z,2.20
2022-08-03T11:45:27.956Z,2.30
2022-08-03T11:48:18.245Z,2.80
2022-08-03T11:51:08.579Z,2.27
2022-08-03T11:53:58.210Z,2.97
2022-08-03T11:56:47.732Z,2.33
2022-08-03T11:59:39.611Z,2.30
2022-08-03T12:02:27.986Z,2.27
2022-08-03T12:05:18.964Z,2.50
2022-08-03T12:08:08.111Z,2.17
2022-08-03T12:10:58.521Z,2.13
2022-08-03T12:13:56.586Z,2.33
2022-08-03T12:16:56.634Z,2.20
2022-08-03T12:19:56.719Z,2.13
2022-08-03T12:22:46.384Z,1.87
2022-08-03T12:25:39.373Z,2.10
2022-08-03T12:28:37.649Z,2.13
2022-08-03T12:31:26.539Z,2.30
2022-08-03T12:34:15.181Z,2.20
2022-08-03T12:37:22.176Z,2.33
2022-08-03T12:40:20.564Z,2.60
2022-08-03T12:43:13.963Z,2.43
2022-08-03T12:46:12.508Z,2.50
2022-08-03T12:49:12.046Z,1.97
2022-08-03T12:52:05.511Z,2.20
2022-08-03T12:54:57.260Z,2.37
2022-08-03T12:57:46.889Z,2.20
2022-08-03T13:00:35.409Z,2.33
2022-08-03T13:03:39.037Z,2.47
2022-08-03T13:06:28.300Z,2.07
2022-08-03T13:09:17.311Z,2.53
2022-08-03T13:12:08.776Z,2.43
2022-08-03T13:15:00.208Z,2.10
2022-08-03T13:17:48.534Z,2.50
2022-08-03T13:20:37.319Z,2.40
2022-08-03T13:23:25.604Z,2.77
2022-08-03T13:26:15.403Z,2.23
2022-08-03T13:29:03.655Z,2.10
2022-08-03T13:31:53.260Z,2.33
2022-08-03T13:34:41.549Z,2.27
2022-08-03T13:37:31.972Z,2.30
2022-08-03T13:40:23.496Z,2.50
2022-08-03T13:43:12.525Z,2.30
2022-08-03T13:46:00.719Z,2.13
2022-08-03T13:48:50.300Z,2.90
2022-08-03T13:51:39.010Z,2.47
2022-08-03T13:54:27.288Z,2.57
2022-08-03T13:58:04.544Z,2.37
2022-08-03T14:00:27.555Z,2.23
2022-08-03T14:03:17.078Z,2.70
2022-08-03T14:06:06.782Z,2.37
2022-08-03T14:08:59.045Z,2.57
2022-08-03T14:12:07.976Z,2.00
2022-08-03T14:14:59.613Z,2.87
2022-08-03T14:17:50.296Z,2.93
2022-08-03T14:20:50.158Z,2.43
2022-08-03T14:23:42.731Z,2.00
2022-08-03T14:26:33.010Z,2.57
2022-08-03T14:29:21.251Z,2.30
2022-08-03T14:32:12.906Z,2.60
2022-08-03T14:35:02.261Z,2.40
2022-08-03T14:37:51.724Z,2.40
2022-08-03T14:40:41.745Z,2.37
2022-08-03T14:43:34.057Z,2.03
2022-08-03T14:46:22.962Z,2.22
2022-08-03T14:50:38.329Z,2.53
2022-08-03T14:52:20.045Z,2.05
2022-08-03T14:55:08.800Z,2.45
2022-08-03T14:57:59.970Z,2.85
2022-08-03T15:00:49.805Z,2.23
2022-08-03T15:03:38.421Z,2.30
2022-08-03T15:06:26.977Z,2.40
2022-08-03T15:09:23.526Z,2.00
2022-08-03T15:12:12.555Z,2.37
2022-08-03T15:15:02.471Z,2.30
2022-08-03T15:17:59.911Z,2.57
2022-08-03T15:20:50.525Z,2.40
2022-08-03T15:23:39.189Z,2.50
2022-08-03T15:26:30.710Z,2.77
2022-08-03T15:30:05.829Z,2.20
2022-08-03T15:32:36.309Z,2.30
2022-08-03T15:35:24.999Z,2.50
2022-08-03T15:38:13.652Z,2.60
2022-08-03T15:41:02.222Z,2.30
2022-08-03T15:43:52.748Z,2.33
2022-08-03T15:46:41.430Z,2.43
2022-08-03T15:49:31.447Z,2.50
2022-08-03T15:52:19.995Z,2.43
2022-08-03T15:55:09.221Z,2.27
2022-08-03T15:59:01.158Z,2.47
2022-08-03T16:01:16.459Z,2.23
2022-08-03T16:04:08.141Z,2.00
2022-08-03T16:06:58.045Z,2.60
2022-08-03T16:09:46.607Z,2.90
2022-08-03T16:12:35.208Z,2.67
2022-08-03T16:15:23.888Z,2.27
2022-08-03T16:18:12.460Z,2.30
2022-08-03T16:21:01.180Z,2.10
2022-08-03T16:23:51.106Z,2.60
2022-08-03T16:26:39.763Z,2.20
2022-08-03T16:29:28.289Z,2.30
2022-08-03T16:32:16.886Z,2.07
2022-08-03T16:35:05.710Z,2.37
2022-08-03T16:37:56.402Z,2.30
2022-08-03T16:40:47.014Z,2.30
2022-08-03T16:43:35.712Z,2.03
2022-08-03T16:46:27.271Z,2.50
2022-08-03T16:49:54.831Z,2.27
2022-08-03T16:52:24.665Z,2.63
2022-08-03T16:55:18.436Z,2.37
2022-08-03T16:58:41.800Z,1.90
2022-08-03T17:01:37.780Z,2.10
2022-08-03T17:04:26.605Z,2.33
2022-08-03T17:07:15.241Z,2.20
2022-08-03T17:10:04.173Z,2.53
2022-08-03T17:12:55.466Z,2.00
2022-08-03T17:15:57.886Z,2.10
2022-08-03T17:18:52.641Z,1.97
2022-08-03T17:21:44.236Z,2.10
2022-08-03T17:24:42.261Z,1.70
2022-08-03T17:28:48.530Z,2.10
2022-08-03T17:30:57.159Z,1.97
2022-08-03T17:33:54.909Z,2.13
2022-08-03T17:37:03.844Z,2.00
2022-08-03T17:40:00.485Z,2.23
2022-08-03T17:42:52.124Z,2.03
2022-08-03T17:45:52.572Z,2.40
2022-08-03T17:48:42.773Z,2.03
2022-08-03T17:51:46.519Z,2.00
2022-08-03T17:55:57.534Z,2.00
2022-08-03T17:58:10.525Z,2.10
2022-08-03T18:02:00.761Z,2.23
2022-08-03T18:04:32.185Z,2.37
2022-08-03T18:07:24.111Z,2.50
2022-08-03T18:10:33.125Z,2.13
2022-08-03T18:13:23.717Z,2.10
2022-08-03T18:16:14.155Z,2.47
2022-08-03T18:19:09.543Z,2.40
2022-08-03T18:22:04.345Z,2.10
2022-08-03T18:24:55.714Z,2.60
2022-08-03T18:27:47.631Z,2.53
2022-08-03T18:30:53.433Z,2.20
2022-08-03T18:34:19.021Z,1.83
2022-08-03T18:36:55.852Z,2.83
2022-08-03T18:39:49.864Z,2.30
2022-08-03T18:42:40.011Z,3.00
2022-08-03T18:45:55.935Z,2.70
2022-08-03T18:48:57.807Z,2.73
2022-08-03T18:51:47.690Z,2.70
2022-08-03T18:58:05.414Z,3.20
2022-08-03T19:01:04.303Z,3.47
2022-08-03T19:03:59.627Z,2.70
2022-08-03T19:06:49.751Z,2.40
2022-08-03T19:09:48.962Z,2.60
2022-08-03T19:12:40.465Z,2.93
2022-08-03T19:15:36.999Z,2.80
2022-08-03T19:18:32.084Z,2.40
2022-08-03T19:21:20.610Z,2.30
2022-08-03T19:24:11.188Z,2.63
2022-08-03T19:27:00.622Z,2.70
2022-08-03T19:33:00.852Z,2.50
2022-08-03T19:35:55.472Z,2.70
2022-08-03T19:38:45.801Z,2.40
2022-08-03T19:41:42.306Z,2.70
2022-08-03T19:44:52.083Z,2.73
2022-08-03T19:47:46.613Z,2.40
2022-08-03T19:50:37.287Z,3.57
2022-08-03T19:53:37.231Z,3.10
2022-08-03T19:56:31.917Z,2.33
2022-08-03T19:59:23.393Z,3.03
2022-08-03T20:02:17.533Z,2.70
2022-08-03T20:05:15.340Z,2.67
2022-08-03T20:08:07.517Z,2.93
2022-08-03T20:10:59.629Z,2.70
2022-08-03T20:13:51.531Z,2.77
2022-08-03T20:16:42.598Z,3.50
2022-08-03T20:19:32.743Z,3.00
2022-08-03T20:22:27.820Z,2.70
2022-08-03T20:25:21.256Z,3.57
2022-08-03T20:28:13.614Z,3.00
2022-08-03T20:31:03.246Z,2.53
2022-08-03T20:33:51.410Z,2.90
2022-08-03T20:36:39.634Z,3.00
2022-08-03T20:39:28.194Z,3.60
2022-08-03T20:42:21.858Z,3.00
2022-08-03T20:45:13.901Z,3.60
2022-08-03T20:48:22.176Z,3.43
2022-08-03T20:51:19.357Z,2.90
2022-08-03T20:54:22.850Z,3.50
2022-08-03T20:57:18.289Z,3.53
2022-08-03T21:00:11.793Z,3.40
2022-08-03T21:03:00.023Z,3.20
2022-08-03T21:05:53.576Z,3.73
2022-08-03T21:08:48.202Z,3.40
2022-08-03T21:11:44.137Z,3.37
2022-08-03T21:13:10.281Z,2.50
2022-08-03T21:13:10.648Z,2.97
2022-08-03T21:14:39.733Z,3.90
2022-08-03T21:17:41.687Z,3.27
2022-08-03T21:20:33.548Z,4.20
2022-08-03T21:23:35.015Z,3.10
2022-08-03T21:26:34.435Z,3.90
2022-08-03T21:29:22.853Z,3.43
2022-08-03T21:32:14.100Z,3.80
2022-08-03T21:35:10.422Z,3.83
2022-08-03T21:38:12.611Z,3.50
2022-08-03T21:41:01.758Z,3.83
2022-08-03T21:43:50.045Z,3.80
2022-08-03T21:46:40.787Z,3.23
2022-08-03T21:50:04.980Z,3.77
2022-08-03T21:52:44.456Z,3.80
2022-08-03T21:55:35.365Z,3.47
2022-08-03T21:58:33.306Z,3.70
2022-08-03T22:01:24.695Z,3.80
2022-08-03T22:04:50.786Z,4.07
2022-08-03T22:07:27.078Z,4.07
2022-08-03T22:10:16.699Z,3.77
2022-08-03T22:13:05.014Z,3.80
2022-08-03T22:15:54.350Z,3.73
2022-08-03T22:18:44.878Z,3.87
2022-08-03T22:21:35.413Z,3.90
2022-08-03T22:24:28.233Z,3.50
2022-08-03T22:27:34.231Z,3.93
2022-08-03T22:30:22.803Z,3.83
2022-08-03T22:33:12.684Z,3.67
2022-08-03T22:36:04.657Z,4.30
2022-08-03T22:38:54.154Z,4.00
2022-08-03T22:41:42.750Z,3.90
2022-08-03T22:44:33.180Z,4.37
2022-08-03T22:47:23.651Z,3.60
2022-08-03T22:50:32.916Z,3.70
2022-08-03T22:53:22.999Z,4.60
2022-08-03T22:56:11.821Z,4.17
2022-08-03T22:59:00.058Z,4.50
2022-08-03T23:01:51.648Z,4.07
2022-08-03T23:04:42.119Z,4.70
2022-08-03T23:07:33.457Z,4.20
2022-08-03T23:10:24.736Z,4.70
2022-08-03T23:13:15.245Z,4.50
2022-08-03T23:16:07.212Z,4.70
2022-08-03T23:18:57.042Z,4.90
2022-08-03T23:21:53.551Z,4.67
2022-08-03T23:24:52.781Z,4.53
2022-08-03T23:27:43.301Z,4.37
2022-08-03T23:30:31.769Z,4.73
2022-08-03T23:33:20.013Z,4.20
2022-08-03T23:36:29.555Z,5.30
2022-08-03T23:39:20.464Z,4.50
2022-08-03T23:42:09.903Z,5.10
2022-08-03T23:45:05.634Z,4.10
2022-08-03T23:47:54.501Z,5.23
2022-08-03T23:50:46.688Z,5.20
2022-08-03T23:53:41.722Z,5.13
2022-08-03T23:56:36.425Z,5.40
2022-08-03T23:59:33.098Z,4.97
